createdAt,value
2022-11-10T00:02:37.916Z,10.48
2022-11-10T00:05:23.292Z,10.57
2022-11-10T00:08:11.213Z,10.57
2022-11-10T00:11:01.457Z,10.53
2022-11-10T00:14:07.025Z,10.50
2022-11-10T00:17:01.964Z,10.48
2022-11-10T00:19:47.662Z,10.47
2022-11-10T00:22:34.880Z,10.47
2022-11-10T00:25:20.600Z,10.42
2022-11-10T00:28:06.371Z,10.42
2022-11-10T00:30:51.619Z,10.42
2022-11-10T00:33:41.978Z,10.42
2022-11-10T00:36:27.426Z,10.44
2022-11-10T00:39:12.735Z,10.39
2022-11-10T00:41:58.437Z,10.44
2022-11-10T00:44:43.631Z,10.47
2022-11-10T00:47:29.290Z,10.48
2022-11-10T00:50:15.336Z,10.51
2022-11-10T00:53:01.102Z,10.52
2022-11-10T00:55:46.391Z,10.45
2022-11-10T00:58:31.565Z,10.46
2022-11-10T01:01:21.690Z,10.50
2022-11-10T01:04:07.239Z,10.55
2022-11-10T01:06:52.985Z,10.59
2022-11-10T01:09:38.767Z,10.52
2022-11-10T01:12:24.449Z,10.48
2022-11-10T01:15:10.235Z,10.44
2022-11-10T01:17:56.834Z,10.41
2022-11-10T01:20:42.221Z,10.25
2022-11-10T01:23:28.690Z,10.29
2022-11-10T01:26:14.487Z,10.35
2022-11-10T01:29:00.102Z,10.33
2022-11-10T01:31:46.034Z,10.28
2022-11-10T01:34:31.939Z,10.30
2022-11-10T01:37:17.637Z,10.38
2022-11-10T01:40:04.799Z,10.43
2022-11-10T01:42:55.393Z,10.50
2022-11-10T01:46:09.924Z,10.46
2022-11-10T01:49:00.679Z,10.43
2022-11-10T01:52:07.994Z,10.42
2022-11-10T01:54:53.349Z,10.48
2022-11-10T01:57:40.013Z,10.54
2022-11-10T02:00:25.471Z,10.52
2022-11-10T02:03:16.479Z,10.48
2022-11-10T02:06:02.450Z,10.54
2022-11-10T02:08:49.031Z,10.57
2022-11-10T02:11:35.866Z,10.54
2022-11-10T02:14:21.576Z,10.54
2022-11-10T02:17:07.129Z,10.54
2022-11-10T02:19:52.693Z,10.59
2022-11-10T02:22:38.494Z,10.65
2022-11-10T02:25:28.400Z,10.75
2022-11-10T02:28:14.015Z,10.79
2022-11-10T02:30:59.246Z,10.78
2022-11-10T02:33:44.819Z,10.74
2022-11-10T02:36:30.623Z,10.75
2022-11-10T02:39:16.229Z,10.72
2022-11-10T02:42:01.997Z,10.72
2022-11-10T02:44:48.050Z,10.77
2022-11-10T02:47:33.108Z,10.70
2022-11-10T02:50:19.032Z,10.66
2022-11-10T02:53:04.429Z,10.65
2022-11-10T02:55:50.062Z,10.59
2022-11-10T02:58:35.685Z,10.55
2022-11-10T03:01:21.085Z,10.49
2022-11-10T03:04:07.496Z,10.45
2022-11-10T03:06:53.320Z,10.38
2022-11-10T03:09:38.816Z,10.44
2022-11-10T03:12:24.007Z,10.48
2022-11-10T03:15:09.983Z,10.57
2022-11-10T03:17:56.269Z,10.54
2022-11-10T03:20:41.632Z,10.41
2022-11-10T03:23:27.278Z,10.38
2022-11-10T03:26:13.011Z,10.37
2022-11-10T03:28:58.489Z,10.40
2022-11-10T03:31:43.541Z,10.46
2022-11-10T03:34:31.820Z,10.51
2022-11-10T03:37:17.715Z,10.51
2022-11-10T03:40:03.257Z,10.48
2022-11-10T03:42:48.744Z,10.42
2022-11-10T03:45:33.671Z,10.38
2022-11-10T03:48:18.739Z,10.45
2022-11-10T03:51:03.939Z,10.43
2022-11-10T03:53:49.698Z,10.43
2022-11-10T03:56:35.469Z,10.46
2022-11-10T03:59:20.959Z,10.54
2022-11-10T04:02:06.244Z,10.62
2022-11-10T04:05:10.134Z,10.69
2022-11-10T04:08:18.744Z,10.74
2022-11-10T04:11:04.395Z,10.79
2022-11-10T04:14:08.570Z,10.82
2022-11-10T04:16:54.191Z,10.85
2022-11-10T04:19:39.834Z,10.84
2022-11-10T04:22:43.923Z,10.70
2022-11-10T04:25:29.583Z,10.52
2022-11-10T04:28:15.182Z,10.42
2022-11-10T04:31:00.501Z,10.43
2022-11-10T04:33:46.856Z,10.48
2022-11-10T04:36:35.034Z,10.47
2022-11-10T04:39:20.621Z,10.44
2022-11-10T04:42:05.898Z,10.47
2022-11-10T04:44:51.582Z,10.55
2022-11-10T04:47:37.127Z,10.62
2022-11-10T04:50:22.785Z,10.68
2022-11-10T04:53:08.681Z,10.68
2022-11-10T04:55:54.341Z,10.63
2022-11-10T04:58:39.746Z,10.58
2022-11-10T05:01:27.553Z,10.58
2022-11-10T05:04:13.089Z,10.64
2022-11-10T05:06:58.694Z,10.69
2022-11-10T05:09:44.126Z,10.62
2022-11-10T05:12:29.808Z,10.51
2022-11-10T05:15:15.042Z,10.43
2022-11-10T05:18:00.595Z,10.44
2022-11-10T05:20:45.911Z,10.51
2022-11-10T05:23:42.002Z,10.62
2022-11-10T05:26:27.292Z,10.76
2022-11-10T05:29:12.985Z,10.85
2022-11-10T05:31:58.511Z,10.85
2022-11-10T05:34:43.662Z,10.85
2022-11-10T05:37:29.073Z,10.88
2022-11-10T05:40:15.382Z,10.88
2022-11-10T05:43:01.226Z,10.82
2022-11-10T05:45:46.795Z,10.82
2022-11-10T05:48:32.161Z,10.84
2022-11-10T05:51:17.458Z,10.86
2022-11-10T05:54:03.440Z,10.89
2022-11-10T05:56:49.678Z,10.91
2022-11-10T05:59:36.082Z,10.91
2022-11-10T06:02:22.695Z,10.90
2022-11-10T06:05:09.868Z,10.92
2022-11-10T06:07:56.593Z,11.02
2022-11-10T06:10:42.698Z,11.09
2022-11-10T06:13:30.441Z,11.15
2022-11-10T06:16:16.485Z,11.17
2022-11-10T06:19:02.953Z,11.14
2022-11-10T06:21:48.792Z,11.13
2022-11-10T06:24:34.689Z,11.09
2022-11-10T06:27:20.166Z,11.20
2022-11-10T06:30:07.344Z,11.23
2022-11-10T06:32:53.523Z,11.27
2022-11-10T06:35:39.804Z,11.28
2022-11-10T06:38:25.755Z,11.36
2022-11-10T06:41:11.549Z,11.28
2022-11-10T06:43:56.566Z,11.26
2022-11-10T06:46:42.578Z,11.18
2022-11-10T06:49:28.284Z,11.16
2022-11-10T06:52:13.944Z,11.19
2022-11-10T06:54:59.642Z,11.21
2022-11-10T06:57:45.219Z,11.33
2022-11-10T07:00:30.680Z,11.45
2022-11-10T07:03:16.514Z,11.51
2022-11-10T07:06:02.037Z,11.65
2022-11-10T07:08:48.627Z,11.73
2022-11-10T07:11:34.851Z,11.78
2022-11-10T07:14:20.366Z,11.85
2022-11-10T07:17:05.659Z,11.87
2022-11-10T07:19:51.022Z,11.89
2022-11-10T07:22:36.260Z,11.93
2022-11-10T07:25:21.514Z,11.99
2022-11-10T07:28:10.470Z,12.06
2022-11-10T07:30:56.138Z,12.08
2022-11-10T07:33:41.706Z,12.00
2022-11-10T07:36:29.381Z,11.97
2022-11-10T07:39:15.192Z,11.99
2022-11-10T07:42:01.484Z,11.98
2022-11-10T07:44:47.554Z,12.05
2022-11-10T07:47:33.662Z,12.12
2022-11-10T07:50:19.535Z,12.24
2022-11-10T07:53:07.780Z,12.34
2022-11-10T07:55:55.271Z,12.33
2022-11-10T07:58:40.937Z,12.37
2022-11-10T08:01:26.299Z,12.40
2022-11-10T08:04:11.736Z,12.44
2022-11-10T08:06:58.874Z,12.42
2022-11-10T08:09:44.966Z,12.38
2022-11-10T08:12:33.668Z,12.38
2022-11-10T08:15:19.071Z,12.43
2022-11-10T08:18:07.218Z,12.53
2022-11-10T08:20:52.821Z,12.73
2022-11-10T08:23:38.835Z,12.88
2022-11-10T08:26:24.836Z,12.90
2022-11-10T08:29:11.131Z,12.91
2022-11-10T08:31:57.385Z,12.98
2022-11-10T08:34:43.610Z,12.90
2022-11-10T08:37:29.187Z,12.86
2022-11-10T08:40:16.347Z,12.79
2022-11-10T08:43:03.117Z,12.76
2022-11-10T08:45:48.228Z,12.73
2022-11-10T08:48:34.592Z,12.62
2022-11-10T08:51:21.472Z,12.68
2022-11-10T08:54:07.019Z,12.57
2022-11-10T08:56:52.394Z,12.54
2022-11-10T08:59:38.077Z,12.46
2022-11-10T09:02:23.860Z,12.55
2022-11-10T09:05:09.795Z,12.73
2022-11-10T09:07:55.414Z,12.88
2022-11-10T09:10:44.162Z,13.12
2022-11-10T09:13:30.979Z,13.22
2022-11-10T09:16:16.854Z,13.38
2022-11-10T09:19:02.968Z,13.25
2022-11-10T09:21:49.700Z,12.98
2022-11-10T09:24:36.922Z,12.95
2022-11-10T09:27:23.502Z,13.00
2022-11-10T09:30:14.532Z,12.80
2022-11-10T09:33:03.591Z,13.01
2022-11-10T09:35:49.591Z,13.05
2022-11-10T09:38:35.997Z,13.31
2022-11-10T09:41:22.582Z,13.47
2022-11-10T09:44:16.633Z,13.74
2022-11-10T09:47:12.441Z,13.87
2022-11-10T09:50:02.010Z,13.97
2022-11-10T09:52:53.489Z,14.10
2022-11-10T09:55:44.599Z,14.17
2022-11-10T09:58:38.160Z,14.25
2022-11-10T10:01:29.165Z,14.25
2022-11-10T10:04:20.444Z,14.35
2022-11-10T10:07:20.722Z,14.34
2022-11-10T10:10:21.149Z,14.32
2022-11-10T10:13:20.843Z,14.00
2022-11-10T10:16:34.346Z,13.88
2022-11-10T10:19:34.845Z,14.05
2022-11-10T10:22:48.818Z,14.42
2022-11-10T10:25:37.142Z,14.49
2022-11-10T10:28:22.693Z,14.39
2022-11-10T10:31:32.737Z,14.41
2022-11-10T10:34:22.455Z,14.24
2022-11-10T10:37:21.915Z,14.11
2022-11-10T10:40:14.051Z,14.26
2022-11-10T10:42:59.878Z,14.11
2022-11-10T10:45:45.087Z,14.30
2022-11-10T10:48:31.029Z,14.43
2022-11-10T10:51:30.625Z,14.55
2022-11-10T10:54:31.603Z,14.63
2022-11-10T10:57:24.753Z,14.92
2022-11-10T11:00:19.989Z,15.08
2022-11-10T11:03:19.432Z,15.14
2022-11-10T11:06:14.534Z,15.35
2022-11-10T11:09:18.689Z,15.40
2022-11-10T11:12:10.857Z,15.47
2022-11-10T11:15:18.706Z,15.67
2022-11-10T11:18:14.365Z,15.65
2022-11-10T11:21:35.063Z,15.72
2022-11-10T11:24:54.963Z,16.08
2022-11-10T11:27:53.119Z,16.51
2022-11-10T11:30:44.329Z,17.04
2022-11-10T11:33:52.944Z,17.10
2022-11-10T11:36:56.453Z,16.28
2022-11-10T11:40:00.395Z,15.65
2022-11-10T11:43:01.935Z,15.51
2022-11-10T11:45:57.044Z,15.51
2022-11-10T11:48:51.707Z,16.17
2022-11-10T11:51:57.440Z,17.05
2022-11-10T11:54:58.316Z,17.44
2022-11-10T11:58:15.474Z,17.74
2022-11-10T12:01:09.698Z,16.40
2022-11-10T12:04:33.572Z,16.40
2022-11-10T12:07:40.474Z,17.33
2022-11-10T12:10:28.550Z,18.02
2022-11-10T12:13:19.716Z,18.52
2022-11-10T12:16:10.965Z,18.99
2022-11-10T12:19:18.014Z,19.31
2022-11-10T12:22:47.181Z,19.17
2022-11-10T12:25:49.314Z,19.68
2022-11-10T12:28:57.994Z,19.56
2022-11-10T12:31:48.060Z,18.83
2022-11-10T12:34:43.891Z,18.11
2022-11-10T12:37:39.060Z,18.69
2022-11-10T12:41:06.886Z,19.15
2022-11-10T12:44:03.225Z,19.14
2022-11-10T12:46:54.556Z,19.20
2022-11-10T12:49:51.884Z,19.66
2022-11-10T12:52:44.779Z,20.01
2022-11-10T12:55:34.460Z,20.25
2022-11-10T12:58:20.592Z,20.44
2022-11-10T13:01:18.784Z,20.72
2022-11-10T13:04:05.986Z,20.69
2022-11-10T13:06:57.488Z,21.01
2022-11-10T13:09:44.445Z,20.94
2022-11-10T13:12:29.947Z,20.79
2022-11-10T13:15:36.785Z,20.94
2022-11-10T13:18:31.455Z,20.76
2022-11-10T13:21:16.962Z,20.92
2022-11-10T13:24:20.999Z,21.22
2022-11-10T13:27:26.504Z,21.47
2022-11-10T13:30:37.700Z,21.79
2022-11-10T13:33:23.124Z,21.53
2022-11-10T13:36:08.898Z,21.49
2022-11-10T13:38:55.821Z,21.35
2022-11-10T13:41:47.242Z,21.14
2022-11-10T13:44:42.467Z,20.91
2022-11-10T13:47:43.442Z,20.82
2022-11-10T13:50:29.021Z,20.96
2022-11-10T13:53:42.530Z,21.20
2022-11-10T13:56:53.778Z,21.40
2022-11-10T13:59:56.589Z,20.86
2022-11-10T14:02:54.346Z,20.64
2022-11-10T14:05:41.942Z,20.50
2022-11-10T14:08:31.181Z,20.58
2022-11-10T14:11:22.820Z,20.73
2022-11-10T14:14:31.642Z,20.58
2022-11-10T14:17:19.155Z,19.49
2022-11-10T14:20:21.149Z,19.40
2022-11-10T14:23:08.293Z,19.15
2022-11-10T14:26:02.677Z,19.40
2022-11-10T14:28:47.894Z,19.32
2022-11-10T14:31:36.206Z,18.24
2022-11-10T14:34:23.828Z,18.33
2022-11-10T14:37:17.765Z,18.50
2022-11-10T14:40:04.326Z,18.52
2022-11-10T14:42:49.877Z,18.46
2022-11-10T14:45:35.655Z,18.48
2022-11-10T14:48:27.197Z,18.29
2022-11-10T14:51:15.935Z,18.04
2022-11-10T14:54:02.783Z,17.86
2022-11-10T14:56:48.739Z,17.60
2022-11-10T14:59:34.276Z,17.25
2022-11-10T15:02:20.072Z,16.84
2022-11-10T15:05:06.067Z,16.70
2022-11-10T15:07:56.647Z,16.36
2022-11-10T15:10:53.246Z,15.89
2022-11-10T15:13:39.651Z,15.60
2022-11-10T15:16:27.733Z,15.34
2022-11-10T15:19:30.038Z,15.22
2022-11-10T15:22:19.452Z,15.02
2022-11-10T15:25:17.634Z,14.91
2022-11-10T15:28:12.141Z,14.76
2022-11-10T15:31:02.555Z,14.63
2022-11-10T15:33:51.645Z,14.52
2022-11-10T15:36:39.853Z,14.40
2022-11-10T15:39:27.368Z,14.03
2022-11-10T15:42:19.647Z,13.73
2022-11-10T15:45:05.536Z,13.56
2022-11-10T15:47:51.552Z,13.45
2022-11-10T15:50:37.382Z,13.29
2022-11-10T15:53:33.652Z,13.24
2022-11-10T15:56:22.052Z,13.14
2022-11-10T15:59:07.204Z,13.06
2022-11-10T16:01:53.905Z,12.92
2022-11-10T16:04:39.374Z,12.89
2022-11-10T16:07:24.826Z,12.82
2022-11-10T16:10:10.696Z,12.73
2022-11-10T16:12:56.143Z,12.62
2022-11-10T16:15:42.714Z,12.52
2022-11-10T16:18:30.006Z,12.34
2022-11-10T16:21:23.587Z,12.16
2022-11-10T16:24:09.192Z,12.08
2022-11-10T16:26:55.054Z,11.94
2022-11-10T16:29:42.099Z,11.97
2022-11-10T16:32:27.407Z,11.97
2022-11-10T16:35:14.115Z,11.86
2022-11-10T16:38:00.833Z,11.88
2022-11-10T16:40:54.938Z,11.97
2022-11-10T16:43:41.319Z,11.86
2022-11-10T16:46:29.376Z,11.82
2022-11-10T16:49:35.267Z,11.75
2022-11-10T16:52:22.652Z,11.65
2022-11-10T16:55:12.522Z,11.60
2022-11-10T16:57:58.361Z,11.50
2022-11-10T17:00:44.244Z,11.40
2022-11-10T17:03:44.928Z,11.37
2022-11-10T17:06:30.859Z,11.28
2022-11-10T17:09:17.923Z,11.15
2022-11-10T17:12:03.370Z,11.02
2022-11-10T17:14:48.525Z,10.93
2022-11-10T17:17:35.428Z,10.88
2022-11-10T17:20:32.276Z,10.77
2022-11-10T17:23:21.675Z,10.69
2022-11-10T17:26:12.890Z,10.44
2022-11-10T17:28:58.499Z,10.41
2022-11-10T17:31:44.874Z,10.43
2022-11-10T17:34:30.263Z,10.45
2022-11-10T17:37:16.236Z,10.44
2022-11-10T17:40:07.676Z,10.45
2022-11-10T17:42:53.231Z,10.38
2022-11-10T17:45:39.351Z,10.27
2022-11-10T17:48:24.772Z,10.18
2022-11-10T17:51:16.376Z,10.14
2022-11-10T17:54:08.456Z,10.01
2022-11-10T17:56:53.946Z,10.03
2022-11-10T17:59:39.449Z,10.12
2022-11-10T18:02:24.697Z,10.17
2022-11-10T18:05:15.445Z,10.11
2022-11-10T18:08:01.145Z,10.05
2022-11-10T18:10:49.306Z,10.01
2022-11-10T18:13:35.589Z,9.98
2022-11-10T18:16:20.750Z,10.04
2022-11-10T18:19:06.074Z,9.89
2022-11-10T18:21:51.449Z,9.81
2022-11-10T18:24:36.910Z,9.84
2022-11-10T18:27:22.591Z,9.96
2022-11-10T18:30:08.763Z,10.04
2022-11-10T18:32:53.989Z,10.07
2022-11-10T18:35:40.632Z,10.13
2022-11-10T18:38:26.200Z,10.18
2022-11-10T18:41:30.167Z,10.23
2022-11-10T18:44:16.371Z,10.31
2022-11-10T18:47:01.823Z,10.39
2022-11-10T18:49:47.566Z,10.46
2022-11-10T18:52:33.246Z,10.52
2022-11-10T18:55:20.207Z,10.57
2022-11-10T18:58:05.785Z,10.62
2022-11-10T19:00:51.394Z,10.65
2022-11-10T19:03:37.791Z,10.65
2022-11-10T19:06:23.541Z,10.65
2022-11-10T19:09:09.193Z,10.64
2022-11-10T19:11:54.901Z,10.59
2022-11-10T19:14:41.530Z,10.57
2022-11-10T19:17:27.250Z,10.56
2022-11-10T19:20:14.730Z,10.55
2022-11-10T19:23:00.058Z,10.50
2022-11-10T19:25:45.914Z,10.44
2022-11-10T19:28:32.141Z,10.41
2022-11-10T19:31:19.704Z,10.39
2022-11-10T19:34:05.300Z,10.39
2022-11-10T19:36:50.972Z,10.38
2022-11-10T19:39:36.651Z,10.34
2022-11-10T19:42:22.381Z,10.34
2022-11-10T19:45:08.811Z,10.33
2022-11-10T19:47:55.398Z,10.28
2022-11-10T19:50:45.136Z,10.26
2022-11-10T19:53:33.608Z,10.25
2022-11-10T19:56:20.705Z,10.22
2022-11-10T19:59:06.780Z,10.19
2022-11-10T20:01:52.328Z,10.16
2022-11-10T20:04:57.570Z,10.15
2022-11-10T20:08:05.175Z,10.13
2022-11-10T20:10:54.103Z,10.12
2022-11-10T20:13:39.583Z,10.03
2022-11-10T20:16:25.273Z,9.90
2022-11-10T20:19:11.329Z,9.87
2022-11-10T20:21:57.637Z,9.77
2022-11-10T20:24:49.890Z,9.78
2022-11-10T20:27:37.033Z,9.79
2022-11-10T20:30:23.903Z,9.77
2022-11-10T20:33:09.745Z,9.70
2022-11-10T20:35:55.310Z,9.71
2022-11-10T20:38:40.657Z,9.69
2022-11-10T20:41:29.757Z,9.69
2022-11-10T20:44:16.030Z,9.57
2022-11-10T20:47:02.853Z,9.47
2022-11-10T20:49:48.799Z,9.33
2022-11-10T20:52:35.563Z,9.25
2022-11-10T20:55:36.964Z,9.22
2022-11-10T20:58:28.136Z,9.23
2022-11-10T21:01:16.055Z,9.26
2022-11-10T21:04:02.682Z,9.25
2022-11-10T21:06:48.498Z,9.27
2022-11-10T21:09:34.408Z,9.32
2022-11-10T21:12:39.109Z,9.33
2022-11-10T21:15:24.802Z,9.30
2022-11-10T21:18:10.441Z,9.31
2022-11-10T21:20:56.302Z,9.38
2022-11-10T21:23:42.063Z,9.45
2022-11-10T21:26:28.428Z,9.49
2022-11-10T21:29:14.703Z,9.54
2022-11-10T21:32:02.180Z,9.57
2022-11-10T21:34:47.966Z,9.54
2022-11-10T21:37:33.558Z,9.57
2022-11-10T21:40:19.277Z,9.57
2022-11-10T21:43:04.874Z,9.56
2022-11-10T21:45:56.763Z,9.56
2022-11-10T21:48:42.808Z,9.56
2022-11-10T21:51:28.706Z,9.55
2022-11-10T21:54:14.423Z,9.51
2022-11-10T21:57:00.047Z,9.51
2022-11-10T21:59:45.655Z,9.49
2022-11-10T22:02:30.867Z,9.46
2022-11-10T22:05:16.573Z,9.46
2022-11-10T22:08:02.046Z,9.47
2022-11-10T22:11:06.635Z,9.50
2022-11-10T22:14:11.116Z,9.54
2022-11-10T22:17:15.544Z,9.57
2022-11-10T22:20:01.267Z,9.50
2022-11-10T22:22:46.971Z,9.51
2022-11-10T22:25:32.765Z,9.56
2022-11-10T22:28:19.814Z,9.60
2022-11-10T22:31:08.072Z,9.60
2022-11-10T22:33:53.656Z,9.55
2022-11-10T22:36:39.286Z,9.55
2022-11-10T22:39:44.854Z,9.59
2022-11-10T22:42:49.321Z,9.59
2022-11-10T22:45:35.041Z,9.59
2022-11-10T22:48:26.914Z,9.56
2022-11-10T22:51:12.542Z,9.53
2022-11-10T22:53:58.855Z,9.52
2022-11-10T22:56:45.314Z,9.48
2022-11-10T22:59:31.125Z,9.40
2022-11-10T23:02:16.721Z,9.37
2022-11-10T23:05:01.983Z,9.38
2022-11-10T23:07:48.998Z,9.40
2022-11-10T23:10:35.211Z,9.43
2022-11-10T23:13:22.169Z,9.43
2022-11-10T23:16:13.826Z,9.43
2022-11-10T23:19:00.271Z,9.37
2022-11-10T23:21:46.031Z,9.33
2022-11-10T23:24:32.384Z,9.33
2022-11-10T23:27:17.677Z,9.32
2022-11-10T23:30:03.980Z,9.29
2022-11-10T23:32:49.971Z,9.13
2022-11-10T23:35:36.377Z,8.96
2022-11-10T23:38:22.136Z,8.93
2022-11-10T23:41:13.409Z,8.85
2022-11-10T23:43:58.672Z,8.84
2022-11-10T23:46:45.834Z,8.81
2022-11-10T23:49:31.490Z,8.80
2022-11-10T23:52:17.762Z,8.81
2022-11-10T23:55:03.335Z,8.79
2022-11-10T23:57:49.105Z,8.77
